sensor_id;sensor_type;location;lat;lon;timestamp;temperature;humidity
70456;DHT22;57916;51.996;5.180;2022-07-04T00:00:17;20.40;56.90
70456;DHT22;57916;51.996;5.180;2022-07-04T00:02:45;20.40;56.90
70456;DHT22;57916;51.996;5.180;2022-07-04T00:05:14;20.40;56.90
70456;DHT22;57916;51.996;5.180;2022-07-04T00:07:42;20.40;57.20
70456;DHT22;57916;51.996;5.180;2022-07-04T00:10:11;20.40;57.40
70456;DHT22;57916;51.996;5.180;2022-07-04T00:12:39;20.30;57.60
70456;DHT22;57916;51.996;5.180;2022-07-04T00:15:07;20.30;57.80
70456;DHT22;57916;51.996;5.180;2022-07-04T00:17:34;20.30;57.90
70456;DHT22;57916;51.996;5.180;2022-07-04T00:20:02;20.20;57.80
70456;DHT22;57916;51.996;5.180;2022-07-04T00:22:30;20.20;57.80
70456;DHT22;57916;51.996;5.180;2022-07-04T00:24:57;20.20;58.00
70456;DHT22;57916;51.996;5.180;2022-07-04T00:27:24;20.20;58.00
70456;DHT22;57916;51.996;5.180;2022-07-04T00:29:51;20.20;57.90
70456;DHT22;57916;51.996;5.180;2022-07-04T00:32:18;20.20;57.90
70456;DHT22;57916;51.996;5.180;2022-07-04T00:34:46;20.10;57.90
70456;DHT22;57916;51.996;5.180;2022-07-04T00:37:13;20.10;59.00
70456;DHT22;57916;51.996;5.180;2022-07-04T00:39:40;20.10;58.00
70456;DHT22;57916;51.996;5.180;2022-07-04T00:42:08;20.10;57.90
70456;DHT22;57916;51.996;5.180;2022-07-04T00:44:35;20.10;57.70
70456;DHT22;57916;51.996;5.180;2022-07-04T00:47:04;20.00;57.90
70456;DHT22;57916;51.996;5.180;2022-07-04T00:49:32;20.00;58.00
70456;DHT22;57916;51.996;5.180;2022-07-04T00:52:00;20.00;58.10
70456;DHT22;57916;51.996;5.180;2022-07-04T00:54:29;20.00;57.90
70456;DHT22;57916;51.996;5.180;2022-07-04T00:56:57;19.90;58.50
70456;DHT22;57916;51.996;5.180;2022-07-04T00:59:24;19.90;58.60
70456;DHT22;57916;51.996;5.180;2022-07-04T01:01:52;19.90;58.50
70456;DHT22;57916;51.996;5.180;2022-07-04T01:04:19;19.90;58.50
70456;DHT22;57916;51.996;5.180;2022-07-04T01:06:46;19.80;58.70
70456;DHT22;57916;51.996;5.180;2022-07-04T01:09:13;19.80;58.80
70456;DHT22;57916;51.996;5.180;2022-07-04T01:11:40;19.80;59.00
70456;DHT22;57916;51.996;5.180;2022-07-04T01:14:07;19.80;59.10
70456;DHT22;57916;51.996;5.180;2022-07-04T01:16:35;19.80;59.30
70456;DHT22;57916;51.996;5.180;2022-07-04T01:19:02;19.70;59.30
70456;DHT22;57916;51.996;5.180;2022-07-04T01:21:31;19.60;59.40
70456;DHT22;57916;51.996;5.180;2022-07-04T01:23:58;19.70;59.60
70456;DHT22;57916;51.996;5.180;2022-07-04T01:26:25;19.70;59.70
70456;DHT22;57916;51.996;5.180;2022-07-04T01:28:53;19.70;59.60
70456;DHT22;57916;51.996;5.180;2022-07-04T01:31:20;19.70;59.40
70456;DHT22;57916;51.996;5.180;2022-07-04T01:33:47;19.60;59.50
70456;DHT22;57916;51.996;5.180;2022-07-04T01:36:14;19.60;59.60
70456;DHT22;57916;51.996;5.180;2022-07-04T01:38:41;19.60;59.40
70456;DHT22;57916;51.996;5.180;2022-07-04T01:41:08;19.60;59.40
70456;DHT22;57916;51.996;5.180;2022-07-04T01:43:35;19.60;59.30
70456;DHT22;57916;51.996;5.180;2022-07-04T01:46:02;19.60;59.30
70456;DHT22;57916;51.996;5.180;2022-07-04T01:48:29;19.60;59.20
70456;DHT22;57916;51.996;5.180;2022-07-04T01:50:56;19.60;59.20
70456;DHT22;57916;51.996;5.180;2022-07-04T01:53:23;19.50;59.30
70456;DHT22;57916;51.996;5.180;2022-07-04T01:55:50;19.40;59.40
70456;DHT22;57916;51.996;5.180;2022-07-04T01:58:17;19.40;59.60
70456;DHT22;57916;51.996;5.180;2022-07-04T02:00:44;19.40;60.00
70456;DHT22;57916;51.996;5.180;2022-07-04T02:03:29;19.30;60.10
70456;DHT22;57916;51.996;5.180;2022-07-04T02:05:56;19.20;60.20
70456;DHT22;57916;51.996;5.180;2022-07-04T02:08:23;19.20;60.50
70456;DHT22;57916;51.996;5.180;2022-07-04T02:11:10;19.20;60.60
70456;DHT22;57916;51.996;5.180;2022-07-04T02:13:37;19.20;60.80
70456;DHT22;57916;51.996;5.180;2022-07-04T02:16:04;19.20;60.80
70456;DHT22;57916;51.996;5.180;2022-07-04T02:18:31;19.20;60.80
70456;DHT22;57916;51.996;5.180;2022-07-04T02:20:58;19.20;60.80
70456;DHT22;57916;51.996;5.180;2022-07-04T02:23:24;19.20;60.60
70456;DHT22;57916;51.996;5.180;2022-07-04T02:25:51;19.20;60.60
70456;DHT22;57916;51.996;5.180;2022-07-04T02:28:18;19.10;60.70
70456;DHT22;57916;51.996;5.180;2022-07-04T02:30:45;19.20;60.80
70456;DHT22;57916;51.996;5.180;2022-07-04T02:33:12;19.20;60.70
70456;DHT22;57916;51.996;5.180;2022-07-04T02:35:39;19.20;60.60
70456;DHT22;57916;51.996;5.180;2022-07-04T02:38:06;19.20;60.40
70456;DHT22;57916;51.996;5.180;2022-07-04T02:40:33;19.20;60.60
70456;DHT22;57916;51.996;5.180;2022-07-04T02:43:00;19.20;60.50
70456;DHT22;57916;51.996;5.180;2022-07-04T02:45:27;19.20;60.90
70456;DHT22;57916;51.996;5.180;2022-07-04T02:47:54;19.20;60.90
70456;DHT22;57916;51.996;5.180;2022-07-04T02:50:21;19.20;60.90
70456;DHT22;57916;51.996;5.180;2022-07-04T02:52:48;19.20;61.10
70456;DHT22;57916;51.996;5.180;2022-07-04T02:55:14;19.20;60.90
70456;DHT22;57916;51.996;5.180;2022-07-04T02:57:41;19.20;61.00
70456;DHT22;57916;51.996;5.180;2022-07-04T03:00:09;19.10;61.00
70456;DHT22;57916;51.996;5.180;2022-07-04T03:02:36;19.20;60.90
70456;DHT22;57916;51.996;5.180;2022-07-04T03:05:03;19.10;60.80
70456;DHT22;57916;51.996;5.180;2022-07-04T03:07:30;19.10;60.90
70456;DHT22;57916;51.996;5.180;2022-07-04T03:09:57;19.10;61.10
70456;DHT22;57916;51.996;5.180;2022-07-04T03:12:24;19.10;61.20
70456;DHT22;57916;51.996;5.180;2022-07-04T03:14:51;19.10;61.20
70456;DHT22;57916;51.996;5.180;2022-07-04T03:17:20;19.10;61.10
70456;DHT22;57916;51.996;5.180;2022-07-04T03:19:47;19.10;60.60
70456;DHT22;57916;51.996;5.180;2022-07-04T03:22:14;19.10;60.60
70456;DHT22;57916;51.996;5.180;2022-07-04T03:24:41;19.10;60.40
70456;DHT22;57916;51.996;5.180;2022-07-04T03:27:08;19.10;60.30
70456;DHT22;57916;51.996;5.180;2022-07-04T03:29:35;19.10;60.30
70456;DHT22;57916;51.996;5.180;2022-07-04T03:32:02;19.10;60.40
70456;DHT22;57916;51.996;5.180;2022-07-04T03:34:29;19.10;60.50
70456;DHT22;57916;51.996;5.180;2022-07-04T03:36:56;19.00;60.70
70456;DHT22;57916;51.996;5.180;2022-07-04T03:39:23;19.00;60.60
70456;DHT22;57916;51.996;5.180;2022-07-04T03:41:50;19.00;60.60
70456;DHT22;57916;51.996;5.180;2022-07-04T03:44:17;19.00;60.50
70456;DHT22;57916;51.996;5.180;2022-07-04T03:46:44;19.00;60.30
70456;DHT22;57916;51.996;5.180;2022-07-04T03:49:11;19.00;60.40
70456;DHT22;57916;51.996;5.180;2022-07-04T03:51:38;19.00;60.60
70456;DHT22;57916;51.996;5.180;2022-07-04T03:54:05;18.90;61.10
70456;DHT22;57916;51.996;5.180;2022-07-04T03:56:32;18.80;61.60
70456;DHT22;57916;51.996;5.180;2022-07-04T03:58:58;18.80;62.00
70456;DHT22;57916;51.996;5.180;2022-07-04T04:01:25;18.80;62.30
70456;DHT22;57916;51.996;5.180;2022-07-04T04:03:52;18.70;62.50
70456;DHT22;57916;51.996;5.180;2022-07-04T04:06:38;18.70;62.60
70456;DHT22;57916;51.996;5.180;2022-07-04T04:09:05;18.80;62.60
70456;DHT22;57916;51.996;5.180;2022-07-04T04:11:36;18.80;62.50
70456;DHT22;57916;51.996;5.180;2022-07-04T04:14:03;18.70;62.30
70456;DHT22;57916;51.996;5.180;2022-07-04T04:16:29;18.80;62.30
70456;DHT22;57916;51.996;5.180;2022-07-04T04:18:56;18.80;62.20
70456;DHT22;57916;51.996;5.180;2022-07-04T04:21:24;18.70;62.30
70456;DHT22;57916;51.996;5.180;2022-07-04T04:23:51;18.70;62.40
70456;DHT22;57916;51.996;5.180;2022-07-04T04:26:18;18.70;62.70
70456;DHT22;57916;51.996;5.180;2022-07-04T04:28:45;18.70;62.90
70456;DHT22;57916;51.996;5.180;2022-07-04T04:31:11;18.70;63.00
70456;DHT22;57916;51.996;5.180;2022-07-04T04:33:39;18.70;63.30
70456;DHT22;57916;51.996;5.180;2022-07-04T04:36:07;18.80;63.40
70456;DHT22;57916;51.996;5.180;2022-07-04T04:38:34;18.80;63.50
70456;DHT22;57916;51.996;5.180;2022-07-04T04:41:01;18.70;63.60
70456;DHT22;57916;51.996;5.180;2022-07-04T04:43:28;18.80;63.80
70456;DHT22;57916;51.996;5.180;2022-07-04T04:45:55;18.80;63.90
70456;DHT22;57916;51.996;5.180;2022-07-04T04:48:22;18.80;64.00
70456;DHT22;57916;51.996;5.180;2022-07-04T04:50:49;18.80;64.10
70456;DHT22;57916;51.996;5.180;2022-07-04T04:53:16;18.70;64.10
70456;DHT22;57916;51.996;5.180;2022-07-04T04:55:43;18.80;64.40
70456;DHT22;57916;51.996;5.180;2022-07-04T04:58:10;18.80;64.50
70456;DHT22;57916;51.996;5.180;2022-07-04T05:00:37;18.90;64.40
70456;DHT22;57916;51.996;5.180;2022-07-04T05:03:03;18.90;64.30
70456;DHT22;57916;51.996;5.180;2022-07-04T05:05:30;18.90;64.40
70456;DHT22;57916;51.996;5.180;2022-07-04T05:07:57;19.00;64.40
70456;DHT22;57916;51.996;5.180;2022-07-04T05:10:24;19.00;64.60
70456;DHT22;57916;51.996;5.180;2022-07-04T05:12:51;19.00;64.50
70456;DHT22;57916;51.996;5.180;2022-07-04T05:15:18;19.10;64.90
70456;DHT22;57916;51.996;5.180;2022-07-04T05:17:45;19.10;65.10
70456;DHT22;57916;51.996;5.180;2022-07-04T05:20:12;19.20;64.90
70456;DHT22;57916;51.996;5.180;2022-07-04T05:22:39;19.20;65.00
70456;DHT22;57916;51.996;5.180;2022-07-04T05:25:06;19.30;65.10
70456;DHT22;57916;51.996;5.180;2022-07-04T05:27:33;19.30;65.20
70456;DHT22;57916;51.996;5.180;2022-07-04T05:30:01;19.40;64.80
70456;DHT22;57916;51.996;5.180;2022-07-04T05:32:28;19.50;65.40
70456;DHT22;57916;51.996;5.180;2022-07-04T05:34:55;19.50;64.30
70456;DHT22;57916;51.996;5.180;2022-07-04T05:37:23;19.60;64.40
70456;DHT22;57916;51.996;5.180;2022-07-04T05:39:50;19.70;64.60
70456;DHT22;57916;51.996;5.180;2022-07-04T05:42:17;19.80;65.10
70456;DHT22;57916;51.996;5.180;2022-07-04T05:44:44;19.90;64.50
70456;DHT22;57916;51.996;5.180;2022-07-04T05:47:11;20.00;63.90
70456;DHT22;57916;51.996;5.180;2022-07-04T05:49:38;20.00;63.70
70456;DHT22;57916;51.996;5.180;2022-07-04T05:52:05;20.10;63.70
70456;DHT22;57916;51.996;5.180;2022-07-04T05:54:33;20.10;63.90
70456;DHT22;57916;51.996;5.180;2022-07-04T05:56:59;20.20;64.20
70456;DHT22;57916;51.996;5.180;2022-07-04T05:59:27;20.20;64.30
70456;DHT22;57916;51.996;5.180;2022-07-04T06:01:55;20.30;63.80
70456;DHT22;57916;51.996;5.180;2022-07-04T06:04:23;20.40;64.00
70456;DHT22;57916;51.996;5.180;2022-07-04T06:06:50;20.50;64.00
70456;DHT22;57916;51.996;5.180;2022-07-04T06:09:17;20.60;63.60
70456;DHT22;57916;51.996;5.180;2022-07-04T06:11:44;20.60;63.30
70456;DHT22;57916;51.996;5.180;2022-07-04T06:14:11;20.70;63.50
70456;DHT22;57916;51.996;5.180;2022-07-04T06:16:38;20.80;63.50
70456;DHT22;57916;51.996;5.180;2022-07-04T06:19:05;20.90;63.60
70456;DHT22;57916;51.996;5.180;2022-07-04T06:21:32;20.90;63.50
70456;DHT22;57916;51.996;5.180;2022-07-04T06:23:59;21.00;63.40
70456;DHT22;57916;51.996;5.180;2022-07-04T06:26:26;21.20;63.50
70456;DHT22;57916;51.996;5.180;2022-07-04T06:28:53;21.30;62.70
70456;DHT22;57916;51.996;5.180;2022-07-04T06:31:20;21.40;62.10
70456;DHT22;57916;51.996;5.180;2022-07-04T06:33:47;21.50;62.10
70456;DHT22;57916;51.996;5.180;2022-07-04T06:36:33;21.50;62.00
70456;DHT22;57916;51.996;5.180;2022-07-04T06:39:00;21.60;62.20
70456;DHT22;57916;51.996;5.180;2022-07-04T06:41:27;21.70;62.20
70456;DHT22;57916;51.996;5.180;2022-07-04T06:43:54;21.70;61.80
70456;DHT22;57916;51.996;5.180;2022-07-04T06:46:21;21.80;62.00
70456;DHT22;57916;51.996;5.180;2022-07-04T06:48:49;21.90;62.00
70456;DHT22;57916;51.996;5.180;2022-07-04T06:51:15;22.00;61.60
70456;DHT22;57916;51.996;5.180;2022-07-04T06:53:43;22.10;61.20
70456;DHT22;57916;51.996;5.180;2022-07-04T06:56:12;22.10;60.90
70456;DHT22;57916;51.996;5.180;2022-07-04T06:58:39;22.10;61.20
70456;DHT22;57916;51.996;5.180;2022-07-04T07:01:06;22.20;60.80
70456;DHT22;57916;51.996;5.180;2022-07-04T07:03:33;22.20;61.20
70456;DHT22;57916;51.996;5.180;2022-07-04T07:06:00;22.30;60.90
70456;DHT22;57916;51.996;5.180;2022-07-04T07:08:30;22.50;60.60
70456;DHT22;57916;51.996;5.180;2022-07-04T07:10:58;22.60;59.90
70456;DHT22;57916;51.996;5.180;2022-07-04T07:13:45;22.70;59.50
70456;DHT22;57916;51.996;5.180;2022-07-04T07:16:12;23.00;59.50
70456;DHT22;57916;51.996;5.180;2022-07-04T07:18:40;23.20;59.40
70456;DHT22;57916;51.996;5.180;2022-07-04T07:21:07;23.60;58.10
70456;DHT22;57916;51.996;5.180;2022-07-04T07:23:37;24.10;56.40
70456;DHT22;57916;51.996;5.180;2022-07-04T07:26:04;24.50;55.30
70456;DHT22;57916;51.996;5.180;2022-07-04T07:28:31;25.00;54.30
70456;DHT22;57916;51.996;5.180;2022-07-04T07:30:58;25.40;53.60
70456;DHT22;57916;51.996;5.180;2022-07-04T07:33:25;25.90;51.90
70456;DHT22;57916;51.996;5.180;2022-07-04T07:35:52;26.40;51.20
70456;DHT22;57916;51.996;5.180;2022-07-04T07:38:19;26.90;49.80
70456;DHT22;57916;51.996;5.180;2022-07-04T07:40:46;27.30;48.90
70456;DHT22;57916;51.996;5.180;2022-07-04T07:43:13;27.60;47.40
70456;DHT22;57916;51.996;5.180;2022-07-04T07:45:40;27.90;46.90
70456;DHT22;57916;51.996;5.180;2022-07-04T07:48:07;28.40;45.90
70456;DHT22;57916;51.996;5.180;2022-07-04T07:50:33;28.70;44.50
70456;DHT22;57916;51.996;5.180;2022-07-04T07:53:00;28.90;43.70
70456;DHT22;57916;51.996;5.180;2022-07-04T07:55:28;29.10;42.80
70456;DHT22;57916;51.996;5.180;2022-07-04T07:57:55;29.30;42.10
70456;DHT22;57916;51.996;5.180;2022-07-04T08:00:22;29.40;41.90
70456;DHT22;57916;51.996;5.180;2022-07-04T08:03:08;29.60;41.30
70456;DHT22;57916;51.996;5.180;2022-07-04T08:05:55;29.80;40.90
70456;DHT22;57916;51.996;5.180;2022-07-04T08:08:22;29.90;40.00
70456;DHT22;57916;51.996;5.180;2022-07-04T08:10:50;29.80;40.00
70456;DHT22;57916;51.996;5.180;2022-07-04T08:13:17;29.50;40.20
70456;DHT22;57916;51.996;5.180;2022-07-04T08:15:44;29.40;40.40
70456;DHT22;57916;51.996;5.180;2022-07-04T08:18:12;29.10;39.90
70456;DHT22;57916;51.996;5.180;2022-07-04T08:20:38;28.80;42.90
70456;DHT22;57916;51.996;5.180;2022-07-04T08:23:26;28.70;41.70
70456;DHT22;57916;51.996;5.180;2022-07-04T08:25:53;28.50;41.70
70456;DHT22;57916;51.996;5.180;2022-07-04T08:28:20;28.30;42.00
70456;DHT22;57916;51.996;5.180;2022-07-04T08:30:47;28.10;41.70
70456;DHT22;57916;51.996;5.180;2022-07-04T08:33:14;28.00;44.20
70456;DHT22;57916;51.996;5.180;2022-07-04T08:35:41;28.10;44.30
70456;DHT22;57916;51.996;5.180;2022-07-04T08:38:08;28.00;43.00
70456;DHT22;57916;51.996;5.180;2022-07-04T08:40:34;27.80;42.20
70456;DHT22;57916;51.996;5.180;2022-07-04T08:43:03;27.60;42.40
70456;DHT22;57916;51.996;5.180;2022-07-04T08:45:31;27.50;44.10
70456;DHT22;57916;51.996;5.180;2022-07-04T08:48:04;27.60;44.40
70456;DHT22;57916;51.996;5.180;2022-07-04T08:50:54;27.70;44.40
70456;DHT22;57916;51.996;5.180;2022-07-04T08:53:28;27.80;43.30
70456;DHT22;57916;51.996;5.180;2022-07-04T08:56:00;27.90;43.40
70456;DHT22;57916;51.996;5.180;2022-07-04T08:58:45;27.90;44.20
70456;DHT22;57916;51.996;5.180;2022-07-04T09:01:13;27.90;42.10
70456;DHT22;57916;51.996;5.180;2022-07-04T09:03:45;27.80;41.60
70456;DHT22;57916;51.996;5.180;2022-07-04T09:06:12;27.70;41.60
70456;DHT22;57916;51.996;5.180;2022-07-04T09:08:39;27.50;41.70
70456;DHT22;57916;51.996;5.180;2022-07-04T09:11:07;27.40;42.60
70456;DHT22;57916;51.996;5.180;2022-07-04T09:13:34;27.20;43.30
70456;DHT22;57916;51.996;5.180;2022-07-04T09:16:01;27.00;42.50
70456;DHT22;57916;51.996;5.180;2022-07-04T09:18:34;26.80;43.70
70456;DHT22;57916;51.996;5.180;2022-07-04T09:21:03;26.60;44.20
70456;DHT22;57916;51.996;5.180;2022-07-04T09:23:33;26.50;44.30
70456;DHT22;57916;51.996;5.180;2022-07-04T09:26:21;26.30;45.00
70456;DHT22;57916;51.996;5.180;2022-07-04T09:28:56;26.10;45.90
70456;DHT22;57916;51.996;5.180;2022-07-04T09:31:28;26.00;46.70
70456;DHT22;57916;51.996;5.180;2022-07-04T09:34:03;25.90;47.70
70456;DHT22;57916;51.996;5.180;2022-07-04T09:36:39;25.80;47.30
70456;DHT22;57916;51.996;5.180;2022-07-04T09:41:55;25.40;47.30
70456;DHT22;57916;51.996;5.180;2022-07-04T09:44:24;25.30;47.80
70456;DHT22;57916;51.996;5.180;2022-07-04T09:46:52;25.20;48.70
70456;DHT22;57916;51.996;5.180;2022-07-04T09:49:19;25.10;49.00
70456;DHT22;57916;51.996;5.180;2022-07-04T09:51:52;25.10;49.30
70456;DHT22;57916;51.996;5.180;2022-07-04T09:54:25;25.00;49.70
70456;DHT22;57916;51.996;5.180;2022-07-04T09:56:55;25.00;50.40
70456;DHT22;57916;51.996;5.180;2022-07-04T09:59:24;24.90;49.20
70456;DHT22;57916;51.996;5.180;2022-07-04T10:01:51;24.90;49.60
70456;DHT22;57916;51.996;5.180;2022-07-04T10:04:18;25.00;50.10
70456;DHT22;57916;51.996;5.180;2022-07-04T10:06:47;25.20;49.70
70456;DHT22;57916;51.996;5.180;2022-07-04T10:09:18;25.50;49.20
70456;DHT22;57916;51.996;5.180;2022-07-04T10:11:46;25.80;48.50
70456;DHT22;57916;51.996;5.180;2022-07-04T10:14:14;26.30;46.40
70456;DHT22;57916;51.996;5.180;2022-07-04T10:16:42;26.70;44.50
70456;DHT22;57916;51.996;5.180;2022-07-04T10:19:09;26.90;43.70
70456;DHT22;57916;51.996;5.180;2022-07-04T10:21:39;27.00;42.90
70456;DHT22;57916;51.996;5.180;2022-07-04T10:24:06;27.10;43.60
70456;DHT22;57916;51.996;5.180;2022-07-04T10:26:34;27.10;44.20
70456;DHT22;57916;51.996;5.180;2022-07-04T10:29:02;27.10;43.60
70456;DHT22;57916;51.996;5.180;2022-07-04T10:31:30;27.00;43.80
70456;DHT22;57916;51.996;5.180;2022-07-04T10:33:59;27.20;43.90
70456;DHT22;57916;51.996;5.180;2022-07-04T10:36:27;27.50;43.70
70456;DHT22;57916;51.996;5.180;2022-07-04T10:39:01;27.80;41.80
70456;DHT22;57916;51.996;5.180;2022-07-04T10:41:30;28.00;40.30
70456;DHT22;57916;51.996;5.180;2022-07-04T10:44:04;28.10;39.00
70456;DHT22;57916;51.996;5.180;2022-07-04T10:46:50;28.00;40.30
70456;DHT22;57916;51.996;5.180;2022-07-04T10:49:19;28.00;40.80
70456;DHT22;57916;51.996;5.180;2022-07-04T10:51:55;28.00;41.30
70456;DHT22;57916;51.996;5.180;2022-07-04T10:54:34;28.00;39.40
70456;DHT22;57916;51.996;5.180;2022-07-04T10:57:18;28.10;41.30
70456;DHT22;57916;51.996;5.180;2022-07-04T11:18:10;29.30;36.30
70456;DHT22;57916;51.996;5.180;2022-07-04T11:20:42;29.20;36.00
70456;DHT22;57916;51.996;5.180;2022-07-04T11:23:12;29.30;35.80
70456;DHT22;57916;51.996;5.180;2022-07-04T11:25:42;29.40;38.20
70456;DHT22;57916;51.996;5.180;2022-07-04T11:31:07;29.80;34.00
70456;DHT22;57916;51.996;5.180;2022-07-04T11:33:34;29.70;34.30
70456;DHT22;57916;51.996;5.180;2022-07-04T11:36:08;29.70;35.90
70456;DHT22;57916;51.996;5.180;2022-07-04T11:38:54;29.80;34.40
70456;DHT22;57916;51.996;5.180;2022-07-04T11:41:25;29.80;35.70
70456;DHT22;57916;51.996;5.180;2022-07-04T11:44:13;29.90;34.90
70456;DHT22;57916;51.996;5.180;2022-07-04T11:49:55;30.40;34.00
70456;DHT22;57916;51.996;5.180;2022-07-04T11:52:25;30.60;35.20
70456;DHT22;57916;51.996;5.180;2022-07-04T11:55:14;30.70;33.30
70456;DHT22;57916;51.996;5.180;2022-07-04T11:57:45;30.90;33.60
70456;DHT22;57916;51.996;5.180;2022-07-04T12:00:17;31.00;34.00
70456;DHT22;57916;51.996;5.180;2022-07-04T12:02:47;31.20;35.60
70456;DHT22;57916;51.996;5.180;2022-07-04T12:05:16;31.30;33.40
70456;DHT22;57916;51.996;5.180;2022-07-04T12:07:45;31.30;31.40
70456;DHT22;57916;51.996;5.180;2022-07-04T12:10:32;31.30;32.30
70456;DHT22;57916;51.996;5.180;2022-07-04T12:13:01;31.20;31.50
70456;DHT22;57916;51.996;5.180;2022-07-04T12:15:50;31.00;31.50
70456;DHT22;57916;51.996;5.180;2022-07-04T12:18:25;30.90;32.40
70456;DHT22;57916;51.996;5.180;2022-07-04T12:20:53;30.70;33.10
70456;DHT22;57916;51.996;5.180;2022-07-04T12:23:21;30.70;32.80
70456;DHT22;57916;51.996;5.180;2022-07-04T12:25:50;30.60;31.20
70456;DHT22;57916;51.996;5.180;2022-07-04T12:28:19;30.60;31.20
70456;DHT22;57916;51.996;5.180;2022-07-04T12:30:58;30.40;32.70
70456;DHT22;57916;51.996;5.180;2022-07-04T12:33:28;30.30;34.50
70456;DHT22;57916;51.996;5.180;2022-07-04T12:35:56;30.30;34.20
70456;DHT22;57916;51.996;5.180;2022-07-04T12:41:07;30.10;32.90
70456;DHT22;57916;51.996;5.180;2022-07-04T12:46:37;29.90;33.90
70456;DHT22;57916;51.996;5.180;2022-07-04T12:49:25;29.80;33.00
70456;DHT22;57916;51.996;5.180;2022-07-04T12:52:07;29.60;33.80
70456;DHT22;57916;51.996;5.180;2022-07-04T12:54:35;29.50;33.50
70456;DHT22;57916;51.996;5.180;2022-07-04T12:57:13;29.40;33.70
70456;DHT22;57916;51.996;5.180;2022-07-04T12:59:42;29.40;33.70
70456;DHT22;57916;51.996;5.180;2022-07-04T13:02:10;29.20;34.20
70456;DHT22;57916;51.996;5.180;2022-07-04T13:04:38;29.00;34.30
70456;DHT22;57916;51.996;5.180;2022-07-04T13:07:14;29.00;35.10
70456;DHT22;57916;51.996;5.180;2022-07-04T13:09:43;28.90;35.80
70456;DHT22;57916;51.996;5.180;2022-07-04T13:12:12;28.80;37.60
70456;DHT22;57916;51.996;5.180;2022-07-04T13:14:52;28.70;35.80
70456;DHT22;57916;51.996;5.180;2022-07-04T13:17:19;28.70;35.80
70456;DHT22;57916;51.996;5.180;2022-07-04T13:19:47;28.60;35.00
70456;DHT22;57916;51.996;5.180;2022-07-04T13:22:14;28.60;34.40
70456;DHT22;57916;51.996;5.180;2022-07-04T13:24:41;28.50;35.10
70456;DHT22;57916;51.996;5.180;2022-07-04T13:27:08;28.50;38.50
70456;DHT22;57916;51.996;5.180;2022-07-04T13:29:34;28.50;37.00
70456;DHT22;57916;51.996;5.180;2022-07-04T13:32:03;28.50;36.00
70456;DHT22;57916;51.996;5.180;2022-07-04T13:34:37;28.60;36.60
70456;DHT22;57916;51.996;5.180;2022-07-04T13:37:05;28.60;35.30
70456;DHT22;57916;51.996;5.180;2022-07-04T13:39:32;28.50;35.10
70456;DHT22;57916;51.996;5.180;2022-07-04T13:42:17;28.40;34.20
70456;DHT22;57916;51.996;5.180;2022-07-04T13:45:05;28.30;34.80
70456;DHT22;57916;51.996;5.180;2022-07-04T13:47:32;28.20;36.00
70456;DHT22;57916;51.996;5.180;2022-07-04T13:49:59;28.10;36.00
70456;DHT22;57916;51.996;5.180;2022-07-04T13:52:26;28.10;34.90
70456;DHT22;57916;51.996;5.180;2022-07-04T13:54:53;28.10;35.20
70456;DHT22;57916;51.996;5.180;2022-07-04T13:57:20;28.00;36.10
70456;DHT22;57916;51.996;5.180;2022-07-04T13:59:47;28.00;36.70
70456;DHT22;57916;51.996;5.180;2022-07-04T14:02:14;27.90;35.90
70456;DHT22;57916;51.996;5.180;2022-07-04T14:04:41;27.90;35.10
70456;DHT22;57916;51.996;5.180;2022-07-04T14:07:08;27.90;34.90
70456;DHT22;57916;51.996;5.180;2022-07-04T14:09:43;28.00;37.10
70456;DHT22;57916;51.996;5.180;2022-07-04T14:12:10;28.00;35.60
70456;DHT22;57916;51.996;5.180;2022-07-04T14:14:37;28.00;35.30
70456;DHT22;57916;51.996;5.180;2022-07-04T14:17:04;28.00;36.10
70456;DHT22;57916;51.996;5.180;2022-07-04T14:19:51;28.00;37.80
70456;DHT22;57916;51.996;5.180;2022-07-04T14:22:17;28.00;36.50
70456;DHT22;57916;51.996;5.180;2022-07-04T14:24:44;28.00;36.60
70456;DHT22;57916;51.996;5.180;2022-07-04T14:27:11;28.00;37.50
70456;DHT22;57916;51.996;5.180;2022-07-04T14:29:38;27.90;36.80
70456;DHT22;57916;51.996;5.180;2022-07-04T14:32:09;27.90;36.20
70456;DHT22;57916;51.996;5.180;2022-07-04T14:34:36;28.00;36.30
70456;DHT22;57916;51.996;5.180;2022-07-04T14:37:03;27.90;36.20
70456;DHT22;57916;51.996;5.180;2022-07-04T14:39:30;27.90;37.30
70456;DHT22;57916;51.996;5.180;2022-07-04T14:41:57;27.90;37.30
70456;DHT22;57916;51.996;5.180;2022-07-04T14:44:24;27.90;36.90
70456;DHT22;57916;51.996;5.180;2022-07-04T14:46:52;27.90;35.90
70456;DHT22;57916;51.996;5.180;2022-07-04T14:49:19;27.90;35.80
70456;DHT22;57916;51.996;5.180;2022-07-04T14:51:46;27.90;35.60
70456;DHT22;57916;51.996;5.180;2022-07-04T14:54:13;27.80;36.70
70456;DHT22;57916;51.996;5.180;2022-07-04T14:56:40;27.80;37.40
70456;DHT22;57916;51.996;5.180;2022-07-04T14:59:07;27.70;36.70
70456;DHT22;57916;51.996;5.180;2022-07-04T15:01:34;27.70;36.70
70456;DHT22;57916;51.996;5.180;2022-07-04T15:04:01;27.70;36.10
70456;DHT22;57916;51.996;5.180;2022-07-04T15:06:27;27.70;36.10
70456;DHT22;57916;51.996;5.180;2022-07-04T15:08:54;27.70;36.40
70456;DHT22;57916;51.996;5.180;2022-07-04T15:11:22;27.60;36.80
70456;DHT22;57916;51.996;5.180;2022-07-04T15:13:49;27.60;36.30
70456;DHT22;57916;51.996;5.180;2022-07-04T15:16:16;27.60;36.60
70456;DHT22;57916;51.996;5.180;2022-07-04T15:18:49;27.60;36.10
70456;DHT22;57916;51.996;5.180;2022-07-04T15:21:16;27.60;36.30
70456;DHT22;57916;51.996;5.180;2022-07-04T15:24:01;27.60;36.40
70456;DHT22;57916;51.996;5.180;2022-07-04T15:26:39;27.50;36.20
70456;DHT22;57916;51.996;5.180;2022-07-04T15:29:06;27.50;36.20
70456;DHT22;57916;51.996;5.180;2022-07-04T15:31:39;27.50;37.00
70456;DHT22;57916;51.996;5.180;2022-07-04T15:34:06;27.60;37.50
70456;DHT22;57916;51.996;5.180;2022-07-04T15:36:33;27.60;36.20
70456;DHT22;57916;51.996;5.180;2022-07-04T15:39:06;27.70;38.80
70456;DHT22;57916;51.996;5.180;2022-07-04T15:41:37;27.70;36.80
70456;DHT22;57916;51.996;5.180;2022-07-04T15:44:05;27.70;36.60
70456;DHT22;57916;51.996;5.180;2022-07-04T15:46:33;27.70;37.00
70456;DHT22;57916;51.996;5.180;2022-07-04T15:49:02;27.70;36.70
70456;DHT22;57916;51.996;5.180;2022-07-04T15:51:30;27.60;36.80
70456;DHT22;57916;51.996;5.180;2022-07-04T15:54:12;27.60;38.70
70456;DHT22;57916;51.996;5.180;2022-07-04T15:56:40;27.60;38.00
70456;DHT22;57916;51.996;5.180;2022-07-04T15:59:07;27.60;36.50
70456;DHT22;57916;51.996;5.180;2022-07-04T16:01:34;27.60;38.00
70456;DHT22;57916;51.996;5.180;2022-07-04T16:04:01;27.60;37.70
70456;DHT22;57916;51.996;5.180;2022-07-04T16:06:30;27.60;36.30
70456;DHT22;57916;51.996;5.180;2022-07-04T16:08:57;27.60;36.60
70456;DHT22;57916;51.996;5.180;2022-07-04T16:11:24;27.50;35.90
70456;DHT22;57916;51.996;5.180;2022-07-04T16:13:51;27.50;37.00